Time;durP1;ratioP1;P1;durP2;ratioP2;P2;SDS_P1;SDS_P2;PMS_P1;PMS_P2;Temp;Humidity;BMP_temperature;BMP_pressure;BME280_temperature;BME280_humidity;BME280_pressure;Samples;Min_cycle;Max_cycle;Signal;HPM_P1;HPM_P2
2022/10/13 00:01:22;;;;;;;20.50;11.35;;;10.20;99.90;;;;;;5112477;28;20035;-56
2022/10/13 00:03:49;;;;;;;24.48;11.63;;;10.20;99.90;;;;;;5112592;28;20036;-56
2022/10/13 00:06:17;;;;;;;21.48;12.05;;;10.20;99.90;;;;;;5114486;28;20044;-56
2022/10/13 00:08:44;;;;;;;26.27;12.52;;;10.20;99.90;;;;;;5114219;28;20460;-56
2022/10/13 00:11:21;;;;;;;34.65;12.27;;;10.20;99.90;;;;;;5114321;28;20075;-56
2022/10/13 00:13:48;;;;;;;25.52;12.25;;;10.20;99.90;;;;;;5114397;28;20427;-56
2022/10/13 00:16:17;;;;;;;23.95;11.57;;;10.30;99.90;;;;;;5096046;28;20070;-56
2022/10/13 00:18:43;;;;;;;;;;;10.30;99.90;;;;;;5114697;28;20373;-56
2022/10/13 00:21:13;;;;;;;20.80;10.80;;;10.30;99.90;;;;;;5096014;28;19920;-56
2022/10/13 00:23:40;;;;;;;21.45;11.75;;;10.30;99.90;;;;;;5114187;28;20126;-56
2022/10/13 00:26:09;;;;;;;24.65;12.32;;;10.30;99.90;;;;;;5096273;28;20043;-56
2022/10/13 00:28:35;;;;;;;;;;;10.30;99.90;;;;;;5114585;28;20047;-56
2022/10/13 00:31:01;;;;;;;24.33;11.95;;;10.20;99.90;;;;;;5096575;28;19920;-56
2022/10/13 00:33:27;;;;;;;27.63;12.98;;;10.20;99.90;;;;;;5118290;28;20036;-56
2022/10/13 00:35:52;;;;;;;23.60;13.95;;;10.30;99.90;;;;;;5118441;28;20043;-56
2022/10/13 00:38:20;;;;;;;24.50;12.10;;;10.20;99.90;;;;;;5118427;28;20046;-57
2022/10/13 00:40:54;;;;;;;18.95;11.93;;;10.30;99.90;;;;;;5118284;28;20489;-56
2022/10/13 00:43:25;;;;;;;24.98;13.32;;;10.20;99.90;;;;;;5099968;28;20512;-56
2022/10/13 00:45:52;;;;;;;25.05;13.10;;;10.20;99.90;;;;;;5117925;28;20468;-56
2022/10/13 00:48:25;;;;;;;21.45;12.13;;;10.20;99.90;;;;;;5118072;28;20462;-56
2022/10/13 00:50:51;;;;;;;23.40;12.15;;;10.20;99.90;;;;;;5118198;28;20058;-56
2022/10/13 00:53:20;;;;;;;23.30;11.98;;;10.30;99.90;;;;;;5117994;28;20035;-57
2022/10/13 00:55:46;;;;;;;22.75;13.45;;;10.30;99.90;;;;;;5117972;28;20073;-56
2022/10/13 00:58:15;;;;;;;21.08;11.93;;;10.30;99.90;;;;;;5118028;28;20028;-56
2022/10/13 01:00:49;;;;;;;22.42;13.00;;;10.30;99.90;;;;;;5117916;28;20078;-56
2022/10/13 01:03:19;;;;;;;22.50;12.27;;;10.30;99.90;;;;;;5117894;28;20039;-56
2022/10/13 01:05:46;;;;;;;23.70;13.05;;;10.30;99.90;;;;;;5117922;28;20085;-56
2022/10/13 01:08:13;;;;;;;22.73;12.80;;;10.30;99.90;;;;;;5099274;28;20043;-56
2022/10/13 01:10:51;;;;;;;21.90;13.65;;;10.30;99.90;;;;;;5117666;28;20082;-56
2022/10/13 01:13:29;;;;;;;22.83;12.80;;;10.30;99.90;;;;;;5117571;28;20113;-56
2022/10/13 01:15:59;;;;;;;28.25;13.02;;;10.30;99.90;;;;;;5117470;28;20032;-56
2022/10/13 01:18:46;;;;;;;21.92;12.70;;;10.30;99.90;;;;;;5117651;28;20044;-56
2022/10/13 01:21:14;;;;;;;25.75;13.43;;;10.30;99.90;;;;;;5117350;28;20524;-56
2022/10/13 01:24:22;;;;;;;22.92;13.50;;;10.30;99.90;;;;;;5117522;28;20122;-56
2022/10/13 01:27:11;;;;;;;24.38;13.23;;;10.30;99.90;;;;;;5117420;28;20047;-56
2022/10/13 01:29:49;;;;;;;26.15;13.07;;;10.30;99.90;;;;;;5117005;28;20051;-56
2022/10/13 01:32:32;;;;;;;25.77;13.32;;;10.30;99.90;;;;;;5117137;28;20055;-56
2022/10/13 01:35:19;;;;;;;25.30;13.48;;;10.30;99.90;;;;;;5117314;28;20039;-56
2022/10/13 01:37:47;;;;;;;29.27;13.75;;;10.30;99.90;;;;;;5117186;28;20036;-56
2022/10/13 01:40:22;;;;;;;21.10;12.57;;;10.30;99.90;;;;;;5117001;28;20489;-57
2022/10/13 01:43:06;;;;;;;20.10;13.02;;;10.30;99.90;;;;;;5117086;28;20277;-56
2022/10/13 01:45:41;;;;;;;28.45;12.63;;;10.40;99.90;;;;;;5117524;28;20036;-56
2022/10/13 01:48:08;;;;;;;21.13;13.68;;;10.40;99.90;;;;;;5116982;28;20047;-56
2022/10/13 01:50:37;;;;;;;24.95;13.95;;;10.30;99.90;;;;;;5116726;28;20123;-56
2022/10/13 01:53:04;;;;;;;23.80;13.75;;;10.30;99.90;;;;;;5116840;28;20044;-56
2022/10/13 01:55:30;;;;;;;21.73;12.77;;;10.30;99.90;;;;;;5116837;28;20031;-57
2022/10/13 01:57:57;;;;;;;24.55;12.98;;;10.30;99.90;;;;;;5116873;28;20039;-56
2022/10/13 02:00:23;;;;;;;19.35;11.75;;;10.40;99.90;;;;;;5116621;28;20497;-56
2022/10/13 02:03:00;;;;;;;23.25;13.70;;;10.30;99.90;;;;;;5116774;28;20427;-56
2022/10/13 02:05:49;;;;;;;26.17;13.10;;;10.30;99.90;;;;;;5116696;28;20036;-56
2022/10/13 02:08:39;;;;;;;30.95;14.90;;;10.40;99.90;;;;;;5116611;28;20112;-56
2022/10/13 02:11:17;;;;;;;26.13;14.15;;;10.30;99.90;;;;;;5116554;28;20042;-56
2022/10/13 02:14:18;;;;;;;27.33;13.93;;;10.30;99.90;;;;;;5116543;28;20382;-56
2022/10/13 02:16:45;;;;;;;35.22;14.15;;;10.30;99.90;;;;;;5013934;28;20098;-56
2022/10/13 02:19:16;;;;;;;22.40;14.77;;;10.30;99.90;;;;;;5013874;28;20038;-57
2022/10/13 02:21:42;;;;;;;26.17;13.93;;;10.40;99.90;;;;;;5013785;28;20556;-56
2022/10/13 02:24:08;;;;;;;26.23;14.13;;;10.40;99.90;;;;;;5013799;28;20125;-56
2022/10/13 02:26:36;;;;;;;24.67;12.63;;;10.30;99.90;;;;;;5013607;28;20381;-56
2022/10/13 02:29:11;;;;;;;23.95;14.45;;;10.30;99.90;;;;;;5013862;28;20050;-56
2022/10/13 02:31:38;;;;;;;27.85;14.88;;;10.30;99.90;;;;;;5013428;28;20137;-56
2022/10/13 02:34:04;;;;;;;28.90;14.35;;;10.30;99.90;;;;;;5013701;28;20507;-56
2022/10/13 02:36:29;;;;;;;21.55;13.68;;;10.20;99.90;;;;;;5013561;28;20034;-56
2022/10/13 02:38:55;;;;;;;24.42;14.32;;;10.30;99.90;;;;;;5013428;28;20188;-56
2022/10/13 02:41:21;;;;;;;26.58;14.55;;;10.30;99.90;;;;;;5013567;28;20042;-56
2022/10/13 02:43:46;;;;;;;29.85;14.32;;;10.20;99.90;;;;;;5013599;28;20412;-56
2022/10/13 02:46:12;;;;;;;27.85;14.00;;;10.20;99.90;;;;;;5013485;28;20492;-56
2022/10/13 02:48:37;;;;;;;27.25;13.95;;;10.20;99.90;;;;;;5013226;28;20067;-56
2022/10/13 02:51:03;;;;;;;27.15;15.20;;;10.20;99.90;;;;;;5013214;28;20044;-56
2022/10/13 02:53:29;;;;;;;27.08;15.77;;;10.20;99.90;;;;;;5114409;28;20485;-56
2022/10/13 02:55:54;;;;;;;25.20;14.95;;;10.20;99.90;;;;;;5115713;28;20024;-56
2022/10/13 02:58:20;;;;;;;24.60;14.10;;;10.10;99.90;;;;;;5115670;28;20462;-56
2022/10/13 03:00:46;;;;;;;25.52;13.70;;;10.10;99.90;;;;;;5115547;28;20034;-56
2022/10/13 03:03:11;;;;;;;27.80;15.00;;;10.20;99.90;;;;;;5115995;28;20069;-56
2022/10/13 03:05:37;;;;;;;21.48;14.30;;;10.20;99.90;;;;;;5115735;28;20045;-56
2022/10/13 03:08:03;;;;;;;26.33;15.00;;;10.20;99.90;;;;;;5115248;28;20110;-55
2022/10/13 03:10:30;;;;;;;24.27;14.80;;;10.10;99.90;;;;;;5097052;28;20114;-56
2022/10/13 03:12:57;;;;;;;25.98;14.68;;;10.10;99.90;;;;;;5115325;28;20054;-56
2022/10/13 03:15:22;;;;;;;27.52;14.32;;;10.20;99.90;;;;;;5114956;28;20462;-54
2022/10/13 03:17:48;;;;;;;25.13;14.63;;;10.20;99.90;;;;;;5115177;28;20038;-54
2022/10/13 03:20:14;;;;;;;28.10;15.07;;;10.10;99.90;;;;;;5115185;28;20043;-54
2022/10/13 03:22:40;;;;;;;28.55;14.57;;;10.20;99.90;;;;;;5115199;28;20133;-54
2022/10/13 03:25:06;;;;;;;31.65;15.60;;;10.20;99.90;;;;;;5096766;28;20153;-54
2022/10/13 03:27:32;;;;;;;28.00;15.68;;;10.20;99.90;;;;;;5115082;28;20119;-54
2022/10/13 03:29:57;;;;;;;28.73;16.35;;;10.20;99.90;;;;;;5114590;28;20523;-54
2022/10/13 03:32:23;;;;;;;24.45;15.23;;;10.20;99.90;;;;;;5114909;28;20176;-54
2022/10/13 03:34:49;;;;;;;30.35;14.93;;;10.20;99.90;;;;;;5095836;28;20043;-54
2022/10/13 03:37:15;;;;;;;25.70;14.43;;;10.20;99.90;;;;;;5114985;28;20122;-54
2022/10/13 03:39:41;;;;;;;25.85;16.15;;;10.20;99.90;;;;;;5114583;28;20245;-54
2022/10/13 03:42:07;;;;;;;26.13;16.20;;;10.20;99.90;;;;;;5114849;28;20497;-54
2022/10/13 03:44:32;;;;;;;30.30;15.25;;;10.20;99.90;;;;;;5096324;28;20039;-54
2022/10/13 03:46:58;;;;;;;28.65;16.55;;;10.30;99.90;;;;;;5114481;28;20046;-54
2022/10/13 03:49:24;;;;;;;26.38;17.80;;;10.30;99.90;;;;;;5114729;28;20042;-54
2022/10/13 03:51:49;;;;;;;28.98;15.50;;;10.30;99.90;;;;;;5114583;28;20032;-54
2022/10/13 03:54:15;;;;;;;25.15;16.00;;;10.30;99.90;;;;;;5114525;28;20040;-54
2022/10/13 03:56:41;;;;;;;24.83;15.77;;;10.20;99.90;;;;;;5114431;28;20040;-54
2022/10/13 03:59:15;;;;;;;22.45;15.32;;;10.30;99.90;;;;;;5114477;28;20035;-54
2022/10/13 04:01:41;;;;;;;32.88;17.73;;;10.40;99.90;;;;;;5114854;28;20421;-54
2022/10/13 04:04:10;;;;;;;24.00;16.13;;;10.40;99.90;;;;;;5114692;28;20118;-54
2022/10/13 04:06:35;;;;;;;27.40;16.40;;;10.30;99.90;;;;;;5113507;28;20038;-54
2022/10/13 04:09:01;;;;;;;28.30;17.40;;;10.30;99.90;;;;;;5114395;28;20035;-54
2022/10/13 04:11:27;;;;;;;30.90;17.35;;;10.30;99.90;;;;;;5114237;28;20042;-54
2022/10/13 04:13:54;;;;;;;28.67;17.00;;;10.30;99.90;;;;;;5114300;28;20024;-54
2022/10/13 04:16:22;;;;;;;27.42;18.25;;;10.40;99.90;;;;;;5095569;28;20052;-54
2022/10/13 04:18:57;;;;;;;24.13;16.10;;;10.30;99.90;;;;;;5096201;28;20080;-54
2022/10/13 04:21:23;;;;;;;34.17;18.45;;;10.30;99.90;;;;;;5114288;28;20031;-54
2022/10/13 04:23:49;;;;;;;30.50;17.95;;;10.30;99.90;;;;;;5113986;28;20035;-54
2022/10/13 04:26:20;;;;;;;23.15;16.38;;;10.30;99.90;;;;;;5095991;28;20039;-54
2022/10/13 04:28:47;;;;;;;29.38;17.05;;;10.30;99.90;;;;;;5096057;28;20039;-54
2022/10/13 04:31:13;;;;;;;31.80;17.27;;;10.30;99.90;;;;;;5113928;28;20056;-54
2022/10/13 04:33:39;;;;;;;30.00;18.75;;;10.30;99.90;;;;;;5113998;28;20385;-54
2022/10/13 04:36:07;;;;;;;30.75;17.60;;;10.20;99.90;;;;;;5114168;28;20035;-54
2022/10/13 04:38:32;;;;;;;32.45;18.00;;;10.30;99.90;;;;;;5113982;28;20507;-54
2022/10/13 04:41:00;;;;;;;28.48;17.75;;;10.30;99.90;;;;;;5099114;28;20035;-55
2022/10/13 04:43:26;;;;;;;33.03;18.25;;;10.30;99.90;;;;;;5131915;27;20512;-53
2022/10/13 04:45:51;;;;;;;31.13;17.35;;;10.40;99.90;;;;;;5115810;28;20039;-53
2022/10/13 04:48:17;;;;;;;34.42;18.60;;;10.30;99.90;;;;;;5134740;28;20201;-54
2022/10/13 04:50:42;;;;;;;27.45;18.25;;;10.40;99.90;;;;;;5134551;28;20037;-53
2022/10/13 04:53:08;;;;;;;30.33;16.83;;;10.30;99.90;;;;;;5134356;28;20047;-54
2022/10/13 04:55:36;;;;;;;28.35;18.05;;;10.30;99.90;;;;;;5134459;28;20062;-54
2022/10/13 04:58:02;;;;;;;29.33;18.02;;;10.40;99.90;;;;;;5134532;27;20393;-53
2022/10/13 05:00:28;;;;;;;27.52;17.25;;;10.30;99.90;;;;;;5134497;28;20039;-54
2022/10/13 05:02:53;;;;;;;29.45;18.42;;;10.40;99.90;;;;;;5134471;28;20035;-54
2022/10/13 05:05:19;;;;;;;26.77;18.15;;;10.30;99.90;;;;;;5134416;28;20042;-54
2022/10/13 05:07:45;;;;;;;30.73;19.20;;;10.40;99.90;;;;;;5115135;28;20109;-53
2022/10/13 05:10:10;;;;;;;29.00;18.08;;;10.40;99.90;;;;;;5103404;28;20209;-54
2022/10/13 05:12:36;;;;;;;31.13;18.70;;;10.30;99.90;;;;;;5116522;28;20122;-54
2022/10/13 05:15:02;;;;;;;28.95;18.83;;;10.50;99.90;;;;;;5134234;28;20035;-54
2022/10/13 05:17:31;;;;;;;30.80;18.52;;;10.30;99.90;;;;;;5136118;27;20039;-54
2022/10/13 05:19:56;;;;;;;30.00;19.48;;;10.30;99.90;;;;;;5119760;27;20039;-54
2022/10/13 05:22:22;;;;;;;33.72;20.08;;;10.30;99.90;;;;;;5137764;27;20397;-54
2022/10/13 05:24:48;;;;;;;36.45;19.63;;;10.40;99.90;;;;;;5138017;27;20542;-53
2022/10/13 05:27:13;;;;;;;33.60;20.33;;;10.40;99.90;;;;;;5137846;27;20122;-54
2022/10/13 05:29:40;;;;;;;33.50;20.02;;;10.30;99.90;;;;;;5137616;27;20108;-54
2022/10/13 05:32:07;;;;;;;38.78;21.42;;;10.40;99.90;;;;;;5137877;27;20062;-53
2022/10/13 05:34:32;;;;;;;38.25;21.63;;;10.30;99.90;;;;;;5137919;27;20043;-54
2022/10/13 05:36:59;;;;;;;30.88;20.23;;;10.30;99.90;;;;;;5119249;27;20038;-53
2022/10/13 05:39:25;;;;;;;35.17;19.83;;;10.30;99.90;;;;;;5136862;27;20114;-54
2022/10/13 05:41:51;;;;;;;33.70;21.05;;;10.30;99.90;;;;;;5136013;27;20182;-53
2022/10/13 05:44:16;;;;;;;29.50;20.48;;;10.40;99.90;;;;;;5137061;27;20565;-54
2022/10/13 05:46:43;;;;;;;34.28;20.17;;;10.30;99.90;;;;;;5137655;27;20603;-53
2022/10/13 05:49:09;;;;;;;31.63;20.65;;;10.40;99.90;;;;;;5137662;27;20039;-54
2022/10/13 05:51:39;;;;;;;32.22;20.80;;;10.20;99.90;;;;;;5137367;27;20386;-53
2022/10/13 05:54:20;;;;;;;35.90;20.98;;;10.30;99.90;;;;;;5137500;27;20043;-54
2022/10/13 05:56:53;;;;;;;31.52;20.48;;;10.30;99.90;;;;;;5137313;27;20066;-53
2022/10/13 05:59:21;;;;;;;33.83;21.50;;;10.30;99.90;;;;;;5137272;27;20511;-54
2022/10/13 06:01:46;;;;;;;33.85;21.33;;;10.40;99.90;;;;;;5137027;27;20481;-54
2022/10/13 06:04:18;;;;;;;30.25;20.27;;;10.40;99.90;;;;;;5137250;27;20043;-54
2022/10/13 06:06:44;;;;;;;35.38;21.75;;;10.40;99.90;;;;;;5137033;27;20122;-54
2022/10/13 06:09:10;;;;;;;35.58;22.25;;;10.40;99.90;;;;;;5136916;27;20419;-54
2022/10/13 06:11:35;;;;;;;35.50;22.63;;;10.30;99.90;;;;;;5136846;27;20076;-54
2022/10/13 06:14:01;;;;;;;39.65;22.77;;;10.40;99.90;;;;;;5137077;27;20031;-54
2022/10/13 06:16:26;;;;;;;36.97;22.25;;;10.30;99.90;;;;;;5137050;27;20031;-54
2022/10/13 06:18:52;;;;;;;39.92;22.85;;;10.40;99.90;;;;;;5136734;27;20073;-54
2022/10/13 06:21:18;;;;;;;36.00;22.05;;;10.40;99.90;;;;;;5118214;27;20043;-53
2022/10/13 06:23:43;;;;;;;33.40;22.23;;;10.40;99.90;;;;;;5136620;27;20074;-54
2022/10/13 06:26:09;;;;;;;36.47;23.02;;;10.50;99.90;;;;;;5136907;27;20043;-54
2022/10/13 06:28:34;;;;;;;39.83;22.95;;;10.50;99.90;;;;;;5135946;27;20043;-53
2022/10/13 06:31:03;;;;;;;35.95;23.30;;;10.60;99.90;;;;;;5117963;27;20100;-54
2022/10/13 06:33:29;;;;;;;36.95;22.55;;;10.50;99.90;;;;;;5136672;27;20043;-54
2022/10/13 06:35:54;;;;;;;34.95;22.73;;;10.60;99.90;;;;;;5136426;27;20042;-54
2022/10/13 06:38:20;;;;;;;39.25;24.63;;;10.50;99.90;;;;;;5136459;27;20042;-54
2022/10/13 06:40:46;;;;;;;41.17;24.67;;;10.60;99.90;;;;;;5134806;27;20035;-54
2022/10/13 06:43:11;;;;;;;42.50;24.10;;;10.60;99.90;;;;;;5134626;27;20430;-53
2022/10/13 06:45:37;;;;;;;38.78;24.17;;;10.50;99.90;;;;;;5135486;27;20454;-54
2022/10/13 06:48:03;;;;;;;39.05;25.52;;;10.60;99.90;;;;;;5136294;27;20465;-53
2022/10/13 06:50:28;;;;;;;38.35;24.17;;;10.70;99.90;;;;;;5136239;27;20039;-54
2022/10/13 06:52:55;;;;;;;32.90;22.58;;;10.70;99.90;;;;;;5136170;27;20035;-53
2022/10/13 06:55:21;;;;;;;33.40;22.73;;;10.80;99.90;;;;;;5136058;27;20050;-53
2022/10/13 06:57:46;;;;;;;40.15;23.92;;;10.80;99.90;;;;;;5135412;27;20450;-53
2022/10/13 07:00:12;;;;;;;39.10;24.13;;;10.70;99.90;;;;;;5135936;27;20096;-54
2022/10/13 07:02:38;;;;;;;35.58;23.27;;;10.80;99.90;;;;;;5135810;27;20047;-54
2022/10/13 07:05:04;;;;;;;36.58;23.85;;;10.90;99.90;;;;;;5136322;27;20090;-54
2022/10/13 07:07:29;;;;;;;38.05;23.60;;;11.00;99.90;;;;;;5135849;27;20035;-54
2022/10/13 07:09:55;;;;;;;88.03;28.13;;;10.90;99.90;;;;;;5128531;27;20039;-53
2022/10/13 07:12:21;;;;;;;44.30;26.63;;;11.00;99.90;;;;;;5114055;28;20043;-54
2022/10/13 07:14:47;;;;;;;41.35;23.75;;;10.90;99.90;;;;;;5114804;28;20039;-54
2022/10/13 07:17:13;;;;;;;38.63;22.90;;;11.00;99.90;;;;;;5115923;28;20114;-54
2022/10/13 07:19:38;;;;;;;38.92;24.88;;;11.00;99.90;;;;;;5115074;28;20136;-54
2022/10/13 07:22:04;;;;;;;36.08;23.40;;;11.10;99.90;;;;;;5115211;28;20240;-54
2022/10/13 07:24:30;;;;;;;39.80;24.45;;;11.20;99.90;;;;;;5115209;28;20100;-54
2022/10/13 07:26:55;;;;;;;36.83;22.45;;;11.20;99.90;;;;;;5114973;28;20486;-53
2022/10/13 07:29:21;;;;;;;35.88;23.25;;;11.20;99.90;;;;;;5114754;28;20043;-54
2022/10/13 07:31:47;;;;;;;38.55;23.73;;;11.30;99.90;;;;;;5114633;28;20434;-54
2022/10/13 07:34:14;;;;;;;37.95;23.17;;;11.40;99.90;;;;;;5114632;28;20036;-54
2022/10/13 07:36:40;;;;;;;36.90;24.17;;;11.40;99.90;;;;;;5096411;28;20031;-54
2022/10/13 07:39:08;;;;;;;39.55;24.63;;;11.50;99.90;;;;;;5121776;27;20084;-54
2022/10/13 07:41:34;;;;;;;35.90;25.05;;;11.40;99.90;;;;;;5135228;27;20114;-54
2022/10/13 07:44:00;;;;;;;37.78;24.38;;;11.50;99.90;;;;;;5135207;27;20035;-54
2022/10/13 07:46:26;;;;;;;39.17;23.65;;;11.60;99.90;;;;;;5135330;27;20057;-54
2022/10/13 07:48:52;;;;;;;33.90;23.38;;;11.60;99.90;;;;;;5135250;27;20035;-53
2022/10/13 07:51:18;;;;;;;32.42;22.30;;;11.50;99.90;;;;;;5134788;27;20074;-54
2022/10/13 07:53:45;;;;;;;31.98;22.05;;;11.70;99.90;;;;;;5135118;27;20043;-54
2022/10/13 07:56:12;;;;;;;36.75;22.33;;;11.70;99.90;;;;;;5135185;27;20155;-53
2022/10/13 07:58:40;;;;;;;35.53;23.10;;;11.70;99.90;;;;;;5116760;27;20035;-54
2022/10/13 08:01:07;;;;;;;35.40;23.33;;;11.80;99.90;;;;;;5116393;27;20039;-54
2022/10/13 08:03:33;;;;;;;34.28;22.38;;;11.80;99.90;;;;;;5135073;27;20128;-54
2022/10/13 08:06:00;;;;;;;37.88;22.38;;;11.70;99.90;;;;;;5134938;27;20475;-54
2022/10/13 08:08:26;;;;;;;37.05;23.73;;;11.80;99.90;;;;;;5135032;27;20136;-54
2022/10/13 08:10:53;;;;;;;36.28;23.15;;;11.90;99.90;;;;;;5116682;27;20118;-54
2022/10/13 08:13:18;;;;;;;36.03;22.35;;;12.10;99.90;;;;;;5134623;27;20477;-54
2022/10/13 08:15:45;;;;;;;36.95;22.13;;;12.00;99.90;;;;;;5134864;27;20122;-54
2022/10/13 08:18:13;;;;;;;37.65;23.92;;;12.10;99.90;;;;;;5116340;27;20091;-54
2022/10/13 08:20:41;;;;;;;34.88;21.67;;;12.10;99.90;;;;;;5134639;27;20122;-54
2022/10/13 08:23:06;;;;;;;34.53;23.10;;;12.10;99.90;;;;;;5134813;27;20035;-54
2022/10/13 08:25:40;;;;;;;34.00;22.65;;;12.20;99.90;;;;;;5134382;27;20031;-54
2022/10/13 08:28:15;;;;;;;33.97;22.23;;;12.10;99.90;;;;;;5128006;28;20074;-54
2022/10/13 08:30:41;;;;;;;37.40;24.08;;;12.20;99.90;;;;;;5113734;28;20047;-54
2022/10/13 08:33:06;;;;;;;35.00;22.35;;;12.10;99.90;;;;;;5095592;28;20058;-54
2022/10/13 08:35:32;;;;;;;35.97;23.35;;;12.20;99.90;;;;;;5113603;28;20036;-54
2022/10/13 08:37:58;;;;;;;39.30;24.13;;;12.10;99.90;;;;;;5095922;28;20032;-54
2022/10/13 08:40:24;;;;;;;34.28;22.15;;;12.20;99.90;;;;;;5113635;28;20065;-54
2022/10/13 08:42:49;;;;;;;39.85;23.95;;;12.10;99.90;;;;;;5095366;28;20519;-54
2022/10/13 08:45:20;;;;;;;33.55;21.85;;;12.10;99.90;;;;;;5094766;28;20048;-54
2022/10/13 08:47:55;;;;;;;35.13;22.52;;;12.30;99.90;;;;;;5113861;28;20122;-54
2022/10/13 08:50:27;;;;;;;35.35;23.75;;;12.30;99.90;;;;;;5113969;28;20059;-54
2022/10/13 08:53:10;;;;;;;41.60;24.00;;;12.30;99.90;;;;;;5116436;28;20386;-54
2022/10/13 08:55:44;;;;;;;41.58;25.83;;;12.40;99.90;;;;;;5117987;28;20043;-54
2022/10/13 08:58:17;;;;;;;36.05;24.13;;;12.30;99.90;;;;;;5117569;28;20532;-54
2022/10/13 09:00:43;;;;;;;38.15;23.55;;;12.30;99.90;;;;;;5082625;28;20122;-54
2022/10/13 09:03:25;;;;;;;38.63;24.75;;;12.40;99.90;;;;;;5117654;28;20139;-54
2022/10/13 09:06:09;;;;;;;39.33;24.98;;;12.40;99.90;;;;;;5082203;28;20100;-54
2022/10/13 09:08:49;;;;;;;41.10;25.33;;;12.40;99.90;;;;;;5099603;28;20047;-54
2022/10/13 09:11:15;;;;;;;38.35;24.50;;;12.40;99.90;;;;;;5117660;28;20050;-54
2022/10/13 09:13:40;;;;;;;41.35;26.17;;;12.50;99.90;;;;;;5117524;28;20039;-54
2022/10/13 09:16:06;;;;;;;40.33;25.92;;;12.50;99.90;;;;;;5117549;28;20036;-54
2022/10/13 09:18:33;;;;;;;37.78;25.45;;;12.70;99.90;;;;;;5117304;28;20039;-54
2022/10/13 09:21:15;;;;;;;39.65;25.80;;;12.50;99.90;;;;;;5098520;28;20444;-53
2022/10/13 09:23:40;;;;;;;36.95;25.88;;;12.70;99.90;;;;;;5117323;28;20453;-54
2022/10/13 09:26:08;;;;;;;40.22;25.45;;;12.70;99.90;;;;;;5117293;28;20048;-54
2022/10/13 09:28:35;;;;;;;39.88;26.92;;;12.60;99.90;;;;;;5117380;28;20036;-54
2022/10/13 09:31:12;;;;;;;37.33;26.23;;;12.70;99.90;;;;;;5116964;28;20054;-54
2022/10/13 09:33:38;;;;;;;36.75;26.15;;;12.60;99.90;;;;;;5116894;28;20052;-54
2022/10/13 09:36:12;;;;;;;43.92;26.95;;;12.60;99.90;;;;;;5117026;28;20047;-54
2022/10/13 09:38:40;;;;;;;40.90;28.90;;;12.70;99.90;;;;;;5117172;28;20035;-54
2022/10/13 09:41:09;;;;;;;42.10;27.63;;;12.90;99.90;;;;;;5131478;27;20058;-54
2022/10/13 09:43:46;;;;;;;38.25;27.65;;;12.70;99.90;;;;;;5136199;27;20028;-54
2022/10/13 09:46:25;;;;;;;41.42;26.70;;;12.80;99.90;;;;;;5115319;28;20055;-54
2022/10/13 09:49:37;;;;;;;514.13;85.70;;;12.70;99.90;;;;;;5116984;28;20040;-54
2022/10/13 09:52:11;;;;;;;;;;;12.80;99.90;;;;;;5014602;28;20085;-54
2022/10/13 09:54:42;;;;;;;53.92;27.73;;;12.80;99.90;;;;;;5014376;28;19949;-54
2022/10/13 09:57:17;;;;;;;40.22;28.50;;;13.00;99.90;;;;;;5014318;28;20042;-54
2022/10/13 09:59:48;;;;;;;43.58;27.55;;;12.90;99.90;;;;;;5014188;28;20471;-54
2022/10/13 10:02:34;;;;;;;38.97;26.98;;;13.00;99.90;;;;;;5014178;28;20049;-53
2022/10/13 10:05:06;;;;;;;36.47;26.88;;;12.90;99.90;;;;;;5013253;28;20038;-54
2022/10/13 10:07:32;;;;;;;39.55;27.40;;;13.00;99.90;;;;;;5014000;28;20052;-53
2022/10/13 10:10:05;;;;;;;42.42;28.20;;;13.20;99.90;;;;;;5013994;28;20050;-54
2022/10/13 10:12:35;;;;;;;41.10;26.80;;;13.20;99.90;;;;;;5013979;28;20117;-54
2022/10/13 10:15:01;;;;;;;39.92;27.33;;;13.10;99.90;;;;;;4997781;28;20109;-53
2022/10/13 10:17:41;;;;;;;41.95;26.45;;;13.30;99.90;;;;;;5027760;28;20038;-54
2022/10/13 10:20:31;;;;;;;40.45;25.15;;;13.20;99.90;;;;;;5033563;28;20048;-54
2022/10/13 10:23:34;;;;;;;40.25;26.02;;;13.40;99.90;;;;;;5033779;28;20132;-54
2022/10/13 10:26:12;;;;;;;36.25;25.45;;;13.40;99.90;;;;;;5033637;28;20149;-63
2022/10/13 10:28:57;;;;;;;37.40;24.83;;;13.20;99.90;;;;;;5090650;27;20043;-63
2022/10/13 10:31:47;;;;;;;35.05;24.40;;;13.30;99.90;;;;;;5136461;27;20126;-62
2022/10/13 10:34:33;;;;;;;35.58;25.25;;;13.50;99.90;;;;;;5136735;27;20041;-63
2022/10/13 10:37:21;;;;;;;39.22;25.88;;;13.30;99.90;;;;;;5136632;27;20096;-63
2022/10/13 10:40:06;;;;;;;34.90;26.13;;;13.50;99.90;;;;;;5136063;27;21059;-63
2022/10/13 10:43:02;;;;;;;35.45;24.75;;;13.40;99.90;;;;;;5135376;27;20039;-63
2022/10/13 10:45:34;;;;;;;35.08;25.88;;;13.30;99.90;;;;;;5129920;27;20727;-62
2022/10/13 10:48:05;;;;;;;36.83;24.65;;;13.50;99.90;;;;;;5115911;28;20039;-63
2022/10/13 10:50:33;;;;;;;36.25;24.90;;;13.30;99.90;;;;;;5115752;28;20054;-63
2022/10/13 10:53:07;;;;;;;37.67;25.48;;;13.50;99.90;;;;;;5115655;28;20405;-63
2022/10/13 10:55:42;;;;;;;37.42;23.80;;;13.30;99.90;;;;;;5115707;28;20040;-63
2022/10/13 10:58:19;;;;;;;35.35;24.15;;;13.40;99.90;;;;;;5115641;28;20042;-63
2022/10/13 11:00:58;;;;;;;34.67;24.35;;;13.30;99.90;;;;;;5121476;27;20035;-63
2022/10/13 11:03:42;;;;;;;31.65;23.13;;;13.50;99.90;;;;;;5135716;27;20132;-63
2022/10/13 11:06:16;;;;;;;36.22;24.00;;;13.30;99.90;;;;;;5136067;27;20043;-63
2022/10/13 11:08:45;;;;;;;31.45;23.48;;;13.40;99.90;;;;;;5136027;27;20050;-63
2022/10/13 11:11:26;;;;;;;32.13;23.20;;;13.40;99.90;;;;;;5135670;27;20103;-54
2022/10/13 11:14:18;;;;;;;34.25;22.98;;;13.40;99.90;;;;;;5135908;27;20039;-54
2022/10/13 11:17:04;;;;;;;36.30;27.40;;;13.40;99.90;;;;;;5135830;27;20038;-63
2022/10/13 11:19:31;;;;;;;31.33;22.80;;;13.70;99.90;;;;;;5032565;28;20131;-62
2022/10/13 11:21:57;;;;;;;32.35;22.48;;;13.60;99.90;;;;;;5032575;28;20550;-63
2022/10/13 11:24:40;;;;;;;38.22;27.58;;;13.70;99.90;;;;;;5032505;28;20045;-63
2022/10/13 11:27:15;;;;;;;34.55;25.33;;;13.70;99.90;;;;;;5033005;28;20060;-53
2022/10/13 11:29:44;;;;;;;33.88;24.13;;;13.70;99.90;;;;;;5015141;28;20454;-62
2022/10/13 11:32:24;;;;;;;29.55;22.23;;;13.80;99.90;;;;;;5032154;28;20056;-63
2022/10/13 11:34:59;;;;;;;31.55;23.80;;;13.90;99.90;;;;;;5032312;28;20040;-63
2022/10/13 11:37:32;;;;;;;32.10;22.35;;;14.00;99.90;;;;;;5032160;28;20099;-64
2022/10/13 11:40:24;;;;;;;29.67;22.70;;;14.00;99.90;;;;;;5032129;28;20034;-63
2022/10/13 11:43:19;;;;;;;27.83;21.30;;;13.90;99.90;;;;;;5015641;28;20061;-63
2022/10/13 11:45:48;;;;;;;27.10;21.55;;;13.90;99.90;;;;;;5032094;28;20465;-63
2022/10/13 11:48:22;;;;;;;27.92;21.30;;;14.00;99.90;;;;;;5029714;28;20064;-62
2022/10/13 11:51:06;;;;;;;28.77;22.52;;;14.10;99.90;;;;;;5012774;28;20089;-63
2022/10/13 11:53:54;;;;;;;25.35;20.33;;;13.90;99.90;;;;;;5010936;28;20038;-63
2022/10/13 11:56:34;;;;;;;25.15;19.70;;;13.90;99.90;;;;;;5049187;28;20132;-62
2022/10/13 11:59:00;;;;;;;26.25;19.83;;;14.10;99.90;;;;;;5114702;27;20088;-63
2022/10/13 12:01:26;;;;;;;24.10;19.55;;;14.00;99.90;;;;;;5115411;27;20461;-63
2022/10/13 12:03:52;;;;;;;28.92;22.38;;;13.80;99.90;;;;;;5133850;27;20037;-54
2022/10/13 12:06:34;;;;;;;23.23;18.73;;;14.10;99.90;;;;;;5114933;27;20459;-54
2022/10/13 12:09:13;;;;;;;28.48;19.77;;;14.10;99.90;;;;;;5115407;27;20035;-54
2022/10/13 12:11:39;;;;;;;24.50;19.40;;;14.10;99.90;;;;;;5114728;28;20047;-53
2022/10/13 12:14:20;;;;;;;24.23;19.98;;;14.20;99.90;;;;;;5133401;27;20031;-54
2022/10/13 12:16:57;;;;;;;27.90;21.35;;;14.10;99.90;;;;;;5133414;27;20067;-53
2022/10/13 12:19:25;;;;;;;30.17;21.65;;;14.20;99.90;;;;;;5133459;27;20031;-54
2022/10/13 12:21:57;;;;;;;25.60;20.35;;;14.20;99.90;;;;;;5129605;27;20047;-53
2022/10/13 12:24:25;;;;;;;28.60;21.15;;;14.40;99.90;;;;;;5112997;28;20032;-54
2022/10/13 12:26:51;;;;;;;25.30;21.60;;;14.40;99.90;;;;;;5112183;28;20042;-54
2022/10/13 12:29:20;;;;;;;28.02;21.30;;;14.30;99.90;;;;;;5112873;28;20044;-54
2022/10/13 12:31:48;;;;;;;28.40;21.23;;;14.40;99.90;;;;;;5112411;28;20410;-54
2022/10/13 12:34:31;;;;;;;25.70;20.80;;;14.50;99.90;;;;;;5113019;28;20064;-54
2022/10/13 12:37:15;;;;;;;28.80;22.30;;;14.30;99.90;;;;;;5113275;28;20489;-54
2022/10/13 12:39:42;;;;;;;29.90;20.13;;;14.60;99.90;;;;;;5113831;28;20036;-54
2022/10/13 12:42:11;;;;;;;24.25;18.48;;;14.40;99.90;;;;;;5112830;28;20031;-55
2022/10/13 12:44:38;;;;;;;24.25;19.55;;;14.40;99.90;;;;;;5133329;27;20485;-55